createdAt,value
2023-05-03T00:00:21.437Z,0.70
2023-05-03T00:02:49.981Z,0.80
2023-05-03T00:05:18.626Z,0.70
2023-05-03T00:07:48.459Z,0.80
2023-05-03T00:10:17.004Z,0.83
2023-05-03T00:12:46.876Z,0.80
2023-05-03T00:15:15.265Z,0.80
2023-05-03T00:17:43.831Z,0.73
2023-05-03T00:20:12.901Z,0.80
2023-05-03T00:22:41.305Z,0.80
2023-05-03T00:25:10.346Z,0.67
2023-05-03T00:27:39.244Z,0.90
2023-05-03T00:30:10.629Z,0.80
2023-05-03T00:32:39.730Z,0.57
2023-05-03T00:35:08.701Z,0.80
2023-05-03T00:37:38.440Z,1.00
2023-05-03T00:40:07.561Z,0.80
2023-05-03T00:42:36.314Z,0.63
2023-05-03T00:45:06.308Z,0.53
2023-05-03T00:47:36.547Z,0.60
2023-05-03T00:50:05.694Z,0.80
2023-05-03T00:52:34.436Z,1.17
2023-05-03T00:55:03.495Z,1.07
2023-05-03T00:57:32.492Z,0.90
2023-05-03T01:00:01.483Z,1.10
2023-05-03T01:02:30.428Z,1.00
2023-05-03T01:05:02.550Z,0.90
2023-05-03T01:07:34.882Z,0.90
2023-05-03T01:10:06.947Z,0.70
2023-05-03T01:12:39.110Z,0.70
2023-05-03T01:15:10.344Z,1.00
2023-05-03T01:17:49.185Z,0.83
2023-05-03T01:20:21.779Z,1.10
2023-05-03T01:23:02.255Z,1.07
2023-05-03T01:25:32.784Z,0.80
2023-05-03T01:28:01.558Z,1.13
2023-05-03T01:30:30.736Z,1.10
2023-05-03T01:33:03.531Z,0.93
2023-05-03T01:35:37.802Z,0.90
2023-05-03T01:38:06.923Z,0.90
2023-05-03T01:40:40.656Z,1.27
2023-05-03T01:43:09.599Z,1.30
2023-05-03T01:45:38.096Z,1.00
2023-05-03T01:48:10.956Z,1.10
2023-05-03T01:50:39.646Z,0.93
2023-05-03T01:53:08.148Z,0.93
2023-05-03T01:55:38.050Z,1.27
2023-05-03T01:58:06.562Z,1.00
2023-05-03T02:00:35.202Z,1.00
2023-05-03T02:03:03.892Z,1.20
2023-05-03T02:05:32.346Z,0.97
2023-05-03T02:08:00.838Z,1.00
2023-05-03T02:10:29.414Z,0.90
2023-05-03T02:12:59.324Z,0.90
2023-05-03T02:15:27.960Z,0.90
2023-05-03T02:17:58.705Z,0.90
2023-05-03T02:20:28.679Z,0.70
2023-05-03T02:22:57.161Z,0.90
2023-05-03T02:25:27.468Z,0.80
2023-05-03T02:27:56.287Z,0.80
2023-05-03T02:30:26.169Z,0.90
2023-05-03T02:32:54.804Z,0.90
2023-05-03T02:35:23.458Z,1.00
2023-05-03T02:37:52.076Z,1.00
2023-05-03T02:40:20.623Z,1.00
2023-05-03T02:42:49.049Z,0.93
2023-05-03T02:45:17.743Z,0.97
2023-05-03T02:47:47.734Z,0.90
2023-05-03T02:50:16.328Z,1.10
2023-05-03T02:52:44.808Z,0.90
2023-05-03T02:55:13.413Z,0.90
2023-05-03T02:57:42.632Z,1.20
2023-05-03T03:00:15.472Z,1.00
2023-05-03T03:02:44.192Z,0.87
2023-05-03T03:05:14.208Z,1.10
2023-05-03T03:07:42.711Z,0.60
2023-05-03T03:10:11.584Z,0.90
2023-05-03T03:12:40.464Z,0.80
2023-05-03T03:15:09.697Z,1.10
2023-05-03T03:17:39.449Z,0.90
2023-05-03T03:20:09.474Z,0.83
2023-05-03T03:22:39.457Z,0.80
2023-05-03T03:25:08.499Z,0.80
2023-05-03T03:27:39.144Z,0.77
2023-05-03T03:30:09.597Z,0.67
2023-05-03T03:32:38.160Z,0.73
2023-05-03T03:35:07.569Z,0.80
2023-05-03T03:37:36.367Z,1.00
2023-05-03T03:40:08.302Z,0.80
2023-05-03T03:42:36.896Z,0.90
2023-05-03T03:45:05.964Z,0.83
2023-05-03T03:47:34.759Z,1.00
2023-05-03T03:50:03.537Z,0.80
2023-05-03T03:52:32.355Z,0.80
2023-05-03T03:55:01.162Z,0.90
2023-05-03T03:57:31.698Z,0.90
2023-05-03T04:00:01.308Z,1.10
2023-05-03T04:02:30.269Z,0.70
2023-05-03T04:04:58.929Z,0.80
2023-05-03T04:07:27.583Z,0.90
2023-05-03T04:09:56.633Z,0.90
2023-05-03T04:12:25.236Z,0.97
2023-05-03T04:14:56.616Z,1.20
2023-05-03T04:17:25.331Z,1.10
2023-05-03T04:19:53.936Z,1.00
2023-05-03T04:22:22.625Z,1.17
2023-05-03T04:24:51.067Z,0.90
2023-05-03T04:27:19.647Z,0.90
2023-05-03T04:29:49.294Z,1.00
2023-05-03T04:32:23.469Z,1.00
2023-05-03T04:34:53.885Z,1.20
2023-05-03T04:37:24.756Z,1.40
2023-05-03T04:39:53.208Z,1.30
2023-05-03T04:42:21.773Z,1.10
2023-05-03T04:44:50.475Z,1.20
2023-05-03T04:47:20.308Z,0.90
2023-05-03T04:49:48.930Z,1.17
2023-05-03T04:52:17.479Z,1.40
2023-05-03T04:54:46.723Z,1.40
2023-05-03T04:57:15.346Z,1.47
2023-05-03T04:59:43.808Z,1.70
2023-05-03T05:02:12.577Z,1.20
2023-05-03T05:04:42.588Z,1.20
2023-05-03T05:07:11.467Z,1.67
2023-05-03T05:09:39.985Z,1.10
2023-05-03T05:12:08.883Z,1.17
2023-05-03T05:14:37.595Z,1.23
2023-05-03T05:17:06.201Z,1.40
2023-05-03T05:19:34.824Z,2.33
2023-05-03T05:22:05.688Z,1.03
2023-05-03T05:24:34.217Z,1.30
2023-05-03T05:27:03.004Z,1.10
2023-05-03T05:29:31.460Z,1.10
2023-05-03T05:32:01.904Z,1.07
2023-05-03T05:34:36.302Z,1.17
2023-05-03T05:37:12.364Z,0.97
2023-05-03T05:39:41.007Z,1.00
2023-05-03T05:42:09.485Z,1.07
2023-05-03T05:44:38.109Z,1.10
2023-05-03T05:47:08.815Z,1.00
2023-05-03T05:49:37.572Z,1.10
2023-05-03T05:52:06.245Z,1.00
2023-05-03T05:54:36.605Z,0.80
2023-05-03T05:57:05.068Z,0.80
2023-05-03T05:59:33.639Z,0.80
2023-05-03T06:02:02.314Z,0.70
2023-05-03T06:04:30.891Z,0.60
2023-05-03T06:06:59.544Z,0.60
2023-05-03T06:09:28.119Z,0.57
2023-05-03T06:11:57.965Z,0.47
2023-05-03T06:14:26.605Z,0.40
2023-05-03T06:16:55.237Z,0.20
2023-05-03T06:19:24.689Z,0.40
2023-05-03T06:21:53.269Z,0.30
2023-05-03T06:24:21.929Z,0.40
2023-05-03T06:26:50.429Z,0.30
2023-05-03T06:29:20.867Z,0.30
2023-05-03T06:31:49.455Z,0.30
2023-05-03T06:34:20.158Z,0.30
2023-05-03T06:36:48.718Z,0.40
2023-05-03T06:39:17.667Z,0.20
2023-05-03T06:41:46.406Z,0.20
2023-05-03T06:44:14.974Z,0.30
2023-05-03T06:46:45.167Z,0.30
2023-05-03T06:49:13.666Z,0.20
2023-05-03T06:51:42.456Z,0.10
2023-05-03T06:54:11.042Z,0.30
2023-05-03T06:56:39.732Z,0.30
2023-05-03T06:59:09.271Z,0.30
2023-05-03T07:01:37.964Z,0.30
2023-05-03T07:04:08.057Z,0.40
2023-05-03T07:06:48.227Z,0.20
2023-05-03T07:09:35.404Z,0.20
2023-05-03T07:12:11.219Z,0.30
2023-05-03T07:14:40.804Z,0.40
2023-05-03T07:17:10.736Z,0.20
2023-05-03T07:19:40.651Z,0.20
2023-05-03T07:22:09.398Z,0.30
2023-05-03T07:24:38.110Z,0.40
2023-05-03T07:27:06.734Z,0.27
2023-05-03T07:29:35.342Z,0.20
2023-05-03T07:32:03.791Z,0.40
2023-05-03T07:34:32.834Z,0.20
2023-05-03T07:37:03.211Z,0.30
2023-05-03T07:39:32.316Z,0.20
2023-05-03T07:42:02.298Z,0.30
2023-05-03T07:44:31.067Z,0.27
2023-05-03T07:46:59.515Z,0.30
2023-05-03T07:49:27.984Z,0.20
2023-05-03T07:51:56.672Z,0.30
2023-05-03T07:54:26.519Z,0.40
2023-05-03T07:56:55.701Z,0.30
2023-05-03T07:59:24.518Z,0.27
2023-05-03T08:01:53.001Z,0.30
2023-05-03T08:04:21.844Z,0.20
2023-05-03T08:06:50.992Z,0.10
2023-05-03T08:09:19.937Z,0.20
2023-05-03T08:11:49.855Z,0.27
2023-05-03T08:14:18.528Z,0.20
2023-05-03T08:16:47.004Z,0.20
2023-05-03T08:19:15.450Z,0.53
2023-05-03T08:21:44.384Z,0.30
2023-05-03T08:24:15.481Z,0.30
2023-05-03T08:26:46.750Z,0.20
2023-05-03T08:29:16.643Z,0.17
2023-05-03T08:31:46.316Z,0.30
2023-05-03T08:34:14.971Z,0.13
2023-05-03T08:36:43.425Z,0.20
2023-05-03T08:39:12.111Z,0.10
2023-05-03T08:41:41.672Z,0.30
2023-05-03T08:44:10.519Z,0.27
2023-05-03T08:46:40.457Z,0.20
2023-05-03T08:49:09.479Z,0.27
2023-05-03T08:51:38.643Z,0.20
2023-05-03T08:54:07.096Z,0.23
2023-05-03T08:56:41.582Z,0.20
2023-05-03T08:59:10.116Z,0.10
2023-05-03T09:01:40.804Z,0.20
2023-05-03T09:04:10.298Z,0.20
2023-05-03T09:06:39.296Z,0.10
2023-05-03T09:09:08.782Z,0.40
2023-05-03T09:11:38.250Z,0.20
2023-05-03T09:14:10.824Z,0.20
2023-05-03T09:16:41.414Z,0.30
2023-05-03T09:19:12.009Z,0.20
2023-05-03T09:21:40.900Z,0.17
2023-05-03T09:24:16.076Z,0.20
2023-05-03T09:26:45.639Z,0.23
2023-05-03T09:29:28.457Z,0.20
2023-05-03T09:32:02.084Z,0.20
2023-05-03T09:34:31.843Z,0.20
2023-05-03T09:37:00.414Z,0.20
2023-05-03T09:39:29.493Z,0.10
2023-05-03T09:41:58.157Z,0.20
2023-05-03T09:44:42.009Z,0.43
2023-05-03T09:47:12.902Z,0.17
2023-05-03T09:49:41.362Z,0.40
2023-05-03T09:52:10.322Z,0.20
2023-05-03T09:54:39.324Z,0.13
2023-05-03T09:57:08.820Z,0.20
2023-05-03T09:59:38.010Z,0.30
2023-05-03T10:02:07.787Z,0.10
2023-05-03T10:04:41.570Z,0.30
2023-05-03T10:07:12.479Z,0.27
2023-05-03T10:09:42.069Z,0.17
2023-05-03T10:12:12.591Z,0.23
2023-05-03T10:14:43.250Z,0.10
2023-05-03T10:17:18.817Z,0.20
2023-05-03T10:19:54.085Z,0.23
2023-05-03T10:22:22.950Z,0.20
2023-05-03T10:25:09.921Z,0.13
2023-05-03T10:27:54.414Z,0.10
2023-05-03T10:30:31.161Z,0.10
2023-05-03T10:33:00.418Z,0.20
2023-05-03T10:35:33.984Z,0.20
2023-05-03T10:38:14.804Z,0.20
2023-05-03T10:40:44.053Z,0.10
2023-05-03T10:43:27.604Z,0.10
2023-05-03T10:45:57.995Z,0.20
2023-05-03T10:48:26.645Z,0.20
2023-05-03T10:50:56.991Z,0.10
2023-05-03T10:53:38.583Z,0.10
2023-05-03T10:56:08.401Z,0.10
2023-05-03T10:58:40.957Z,0.20
2023-05-03T11:01:11.259Z,0.20
2023-05-03T11:03:51.105Z,0.10
2023-05-03T11:06:34.504Z,0.10
2023-05-03T11:09:03.959Z,0.20
2023-05-03T11:11:32.679Z,0.20
2023-05-03T11:14:01.290Z,0.20
2023-05-03T11:16:31.092Z,0.20
2023-05-03T11:18:59.694Z,0.20
2023-05-03T11:21:28.767Z,0.20
2023-05-03T11:24:00.063Z,0.10
2023-05-03T11:26:28.596Z,0.20
2023-05-03T11:28:57.298Z,0.20
2023-05-03T11:31:26.063Z,0.20
2023-05-03T11:33:55.386Z,0.13
2023-05-03T11:36:24.003Z,0.10
2023-05-03T11:38:52.461Z,0.30
2023-05-03T11:41:22.487Z,0.10
2023-05-03T11:44:03.977Z,0.20
2023-05-03T11:46:38.932Z,0.10
2023-05-03T11:49:07.897Z,0.07
2023-05-03T11:51:36.808Z,0.20
2023-05-03T11:54:20.571Z,0.10
2023-05-03T11:56:57.705Z,0.00
2023-05-03T11:59:35.895Z,0.10
2023-05-03T12:02:05.881Z,0.10
2023-05-03T12:04:35.128Z,0.20
2023-05-03T12:07:05.191Z,0.20
2023-05-03T12:09:35.380Z,0.20
2023-05-03T12:12:06.999Z,0.20
2023-05-03T12:14:59.791Z,0.20
2023-05-03T12:17:39.277Z,0.10
2023-05-03T12:21:05.124Z,0.20
2023-05-03T12:23:09.797Z,0.20
2023-05-03T12:25:42.905Z,0.13
2023-05-03T12:28:20.076Z,0.20
2023-05-03T12:30:52.899Z,0.20
2023-05-03T12:33:23.156Z,0.13
2023-05-03T12:35:54.198Z,0.30
2023-05-03T12:38:24.972Z,0.13
2023-05-03T12:40:54.997Z,0.20
2023-05-03T12:43:25.079Z,0.10
2023-05-03T12:46:11.985Z,0.10
2023-05-03T12:48:45.932Z,0.10
2023-05-03T12:51:19.902Z,0.00
2023-05-03T12:53:54.469Z,0.10
2023-05-03T12:56:25.287Z,0.10
2023-05-03T13:02:06.001Z,0.10
2023-05-03T13:04:56.036Z,0.20
2023-05-03T13:07:16.963Z,0.10
2023-05-03T13:12:36.320Z,0.17
2023-05-03T13:15:07.041Z,0.13
2023-05-03T13:17:35.880Z,0.10
2023-05-03T13:20:08.343Z,0.10
2023-05-03T13:22:36.913Z,0.10
2023-05-03T13:25:05.710Z,0.13
2023-05-03T13:27:34.671Z,0.20
2023-05-03T13:30:05.086Z,0.20
2023-05-03T13:32:35.067Z,0.20
2023-05-03T13:35:05.631Z,0.20
2023-05-03T13:37:34.344Z,0.10
2023-05-03T13:40:02.959Z,0.30
2023-05-03T13:42:31.973Z,0.20
2023-05-03T13:45:00.415Z,0.10
2023-05-03T13:47:33.129Z,0.10
2023-05-03T13:50:12.467Z,0.13
2023-05-03T13:52:42.511Z,0.20
2023-05-03T13:55:11.292Z,0.03
2023-05-03T13:57:39.881Z,0.10
2023-05-03T14:00:10.250Z,0.10
2023-05-03T14:02:38.788Z,0.30
2023-05-03T14:05:08.034Z,0.10
2023-05-03T14:07:38.132Z,0.13
2023-05-03T14:10:07.713Z,0.10
2023-05-03T14:12:37.913Z,0.10
2023-05-03T14:15:07.073Z,0.10
2023-05-03T14:17:35.568Z,0.10
2023-05-03T14:20:07.759Z,0.10
2023-05-03T14:22:37.826Z,0.10
2023-05-03T14:25:06.633Z,0.10
2023-05-03T14:27:35.247Z,0.10
2023-05-03T14:30:03.957Z,0.10
2023-05-03T14:32:32.902Z,0.00
2023-05-03T14:35:02.135Z,0.20
2023-05-03T14:37:30.923Z,0.10
2023-05-03T14:40:00.867Z,0.10
2023-05-03T14:42:35.035Z,0.10
2023-05-03T14:45:04.103Z,0.20
2023-05-03T14:47:32.782Z,0.10
2023-05-03T14:50:01.504Z,0.17
2023-05-03T14:52:30.234Z,0.10
2023-05-03T14:54:58.692Z,0.10
2023-05-03T14:57:28.739Z,0.07
2023-05-03T14:59:57.455Z,0.30
2023-05-03T15:02:27.006Z,0.00
2023-05-03T15:04:55.625Z,0.10
2023-05-03T15:07:24.240Z,0.10
2023-05-03T15:09:52.752Z,0.10
2023-05-03T15:12:21.349Z,0.20
2023-05-03T15:14:51.566Z,0.10
2023-05-03T15:17:20.108Z,0.20
2023-05-03T15:19:48.667Z,0.10
2023-05-03T15:22:17.424Z,0.10
2023-05-03T15:24:46.602Z,0.10
2023-05-03T15:27:15.120Z,0.00
2023-05-03T15:29:43.707Z,0.10
2023-05-03T15:32:13.745Z,0.03
2023-05-03T15:34:42.326Z,0.10
2023-05-03T15:37:12.356Z,0.10
2023-05-03T15:39:40.927Z,0.10
2023-05-03T15:42:10.756Z,0.20
2023-05-03T15:44:39.275Z,0.10
2023-05-03T15:47:07.763Z,0.10
2023-05-03T15:49:37.740Z,0.20
2023-05-03T15:52:07.781Z,0.10
2023-05-03T15:54:37.815Z,0.20
2023-05-03T15:57:06.545Z,0.10
2023-05-03T15:59:35.054Z,0.10
2023-05-03T16:02:04.111Z,0.17
2023-05-03T16:04:32.880Z,0.13
2023-05-03T16:07:02.855Z,0.10
2023-05-03T16:09:31.349Z,0.00
2023-05-03T16:11:59.936Z,0.20
2023-05-03T16:14:28.475Z,0.20
2023-05-03T16:16:57.578Z,0.10
2023-05-03T16:19:26.963Z,0.10
2023-05-03T16:21:55.624Z,0.00
2023-05-03T16:24:25.462Z,0.00
2023-05-03T16:26:54.305Z,0.10
2023-05-03T16:29:22.939Z,0.20
2023-05-03T16:31:52.748Z,0.20
2023-05-03T16:34:22.012Z,0.10
2023-05-03T16:36:50.791Z,0.10
2023-05-03T16:39:19.419Z,0.10
2023-05-03T16:41:49.444Z,0.20
2023-05-03T16:44:19.251Z,0.27
2023-05-03T16:46:48.784Z,0.20
2023-05-03T16:49:18.554Z,0.30
2023-05-03T16:51:46.961Z,0.23
2023-05-03T16:54:16.908Z,0.10
2023-05-03T16:56:45.673Z,0.27
2023-05-03T16:59:16.868Z,0.17
2023-05-03T17:01:45.931Z,0.20
2023-05-03T17:04:14.853Z,0.10
2023-05-03T17:06:43.349Z,0.13
2023-05-03T17:09:13.374Z,0.30
2023-05-03T17:11:42.109Z,0.10
2023-05-03T17:14:10.605Z,0.10
2023-05-03T17:16:42.355Z,0.10
2023-05-03T17:19:11.087Z,0.20
2023-05-03T17:21:39.674Z,0.10
2023-05-03T17:24:08.590Z,0.17
2023-05-03T17:26:37.263Z,0.20
2023-05-03T17:29:07.592Z,0.10
2023-05-03T17:31:36.085Z,0.10
2023-05-03T17:34:05.994Z,0.10
2023-05-03T17:36:34.524Z,0.10
2023-05-03T17:39:02.968Z,0.13
2023-05-03T17:41:31.967Z,0.20
2023-05-03T17:44:00.545Z,0.30
2023-05-03T17:46:29.615Z,0.20
2023-05-03T17:48:58.600Z,0.23
2023-05-03T17:51:28.543Z,0.10
2023-05-03T17:53:56.987Z,0.10
2023-05-03T17:56:26.050Z,0.10
2023-05-03T17:58:54.645Z,0.10
2023-05-03T18:01:23.201Z,0.20
2023-05-03T18:03:51.938Z,0.17
2023-05-03T18:06:20.698Z,0.10
2023-05-03T18:08:50.547Z,0.10
2023-05-03T18:11:19.186Z,0.10
2023-05-03T18:13:47.721Z,0.10
2023-05-03T18:16:17.139Z,0.17
2023-05-03T18:18:45.782Z,0.20
2023-05-03T18:21:14.422Z,0.10
2023-05-03T18:23:44.329Z,0.00
2023-05-03T18:26:14.428Z,0.10
2023-05-03T18:28:43.056Z,0.10
2023-05-03T18:31:12.906Z,0.20
2023-05-03T18:33:41.542Z,0.10
2023-05-03T18:36:11.848Z,0.10
2023-05-03T18:38:40.410Z,0.20
2023-05-03T18:41:14.509Z,0.10
2023-05-03T18:43:44.857Z,0.03
2023-05-03T18:46:18.215Z,0.20
2023-05-03T18:48:46.752Z,0.20
2023-05-03T18:51:15.237Z,0.10
2023-05-03T18:53:43.806Z,0.20
2023-05-03T18:56:12.389Z,0.20
2023-05-03T18:58:40.880Z,0.10
2023-05-03T19:01:10.926Z,0.03
2023-05-03T19:03:39.569Z,0.13
2023-05-03T19:06:08.451Z,0.10
2023-05-03T19:08:37.105Z,0.30
2023-05-03T19:11:09.332Z,0.10
2023-05-03T19:13:38.031Z,0.20
2023-05-03T19:16:06.833Z,0.10
2023-05-03T19:18:37.898Z,0.20
2023-05-03T19:21:06.707Z,0.10
2023-05-03T19:23:35.255Z,0.10
2023-05-03T19:26:03.901Z,0.10
2023-05-03T19:28:32.381Z,0.10
2023-05-03T19:31:04.476Z,0.10
2023-05-03T19:33:33.234Z,0.20
2023-05-03T19:36:06.874Z,0.13
2023-05-03T19:38:36.438Z,0.00
2023-05-03T19:41:08.392Z,0.50
2023-05-03T19:43:36.980Z,0.20
2023-05-03T19:46:05.516Z,0.30
2023-05-03T19:48:34.362Z,0.10
2023-05-03T19:51:05.400Z,0.00
2023-05-03T19:53:33.973Z,0.20
2023-05-03T19:56:03.347Z,0.20
2023-05-03T19:58:33.101Z,0.20
2023-05-03T20:01:01.759Z,0.30
2023-05-03T20:03:30.531Z,0.20
2023-05-03T20:05:59.246Z,0.10
2023-05-03T20:08:29.096Z,0.20
2023-05-03T20:10:57.613Z,0.10
2023-05-03T20:13:27.681Z,0.23
2023-05-03T20:15:56.394Z,0.20
2023-05-03T20:18:25.057Z,0.20
2023-05-03T20:20:53.772Z,0.30
2023-05-03T20:23:22.285Z,0.27
2023-05-03T20:25:52.247Z,0.30
2023-05-03T20:28:20.941Z,0.20
2023-05-03T20:30:49.444Z,0.20
2023-05-03T20:33:18.031Z,0.10
2023-05-03T20:35:46.777Z,0.10
2023-05-03T20:38:15.256Z,0.10
2023-05-03T20:40:43.812Z,0.20
2023-05-03T20:43:14.082Z,0.20
2023-05-03T20:45:42.579Z,0.40
2023-05-03T20:48:11.199Z,0.17
2023-05-03T20:50:39.849Z,0.20
2023-05-03T20:53:08.327Z,0.20
2023-05-03T20:55:37.065Z,0.37
2023-05-03T20:58:05.943Z,0.20
2023-05-03T21:00:35.841Z,0.30
2023-05-03T21:03:04.566Z,0.20
2023-05-03T21:05:33.297Z,0.27
2023-05-03T21:08:01.788Z,0.10
2023-05-03T21:10:30.392Z,0.20
2023-05-03T21:12:59.022Z,0.23
2023-05-03T21:15:27.505Z,0.30
2023-05-03T21:17:58.055Z,0.30
2023-05-03T21:20:26.755Z,0.23
2023-05-03T21:22:55.214Z,0.10
2023-05-03T21:25:23.947Z,0.23
2023-05-03T21:27:52.741Z,0.20
2023-05-03T21:30:23.990Z,0.20
2023-05-03T21:32:53.142Z,0.30
2023-05-03T21:35:23.087Z,0.40
2023-05-03T21:37:51.550Z,0.20
2023-05-03T21:40:20.323Z,0.30
2023-05-03T21:42:49.016Z,0.30
2023-05-03T21:45:17.624Z,0.20
2023-05-03T21:47:46.646Z,0.20
2023-05-03T21:50:15.143Z,0.30
2023-05-03T21:52:44.991Z,0.27
2023-05-03T21:55:13.686Z,0.30
2023-05-03T21:57:42.144Z,0.20
2023-05-03T22:00:15.272Z,0.40
2023-05-03T22:02:43.903Z,0.40
2023-05-03T22:05:13.191Z,0.20
2023-05-03T22:07:41.796Z,0.30
2023-05-03T22:10:12.112Z,0.27
2023-05-03T22:12:40.773Z,0.50
2023-05-03T22:15:11.439Z,0.50
2023-05-03T22:17:39.960Z,0.47
2023-05-03T22:20:10.343Z,0.30
2023-05-03T22:22:38.919Z,0.40
2023-05-03T22:25:08.015Z,0.67
2023-05-03T22:27:38.045Z,0.30
2023-05-03T22:30:07.147Z,0.40
2023-05-03T22:32:35.681Z,0.50
2023-05-03T22:35:04.896Z,0.50
2023-05-03T22:37:33.733Z,0.30
2023-05-03T22:40:02.698Z,0.50
2023-05-03T22:42:31.486Z,0.40
2023-05-03T22:45:01.453Z,0.50
2023-05-03T22:47:30.088Z,0.53
2023-05-03T22:49:58.693Z,0.43
2023-05-03T22:52:27.607Z,0.50
2023-05-03T22:55:00.574Z,0.40
2023-05-03T22:57:29.252Z,0.50
2023-05-03T22:59:57.712Z,0.50
2023-05-03T23:02:27.692Z,0.37
2023-05-03T23:04:56.376Z,0.40
2023-05-03T23:07:24.947Z,0.50
2023-05-03T23:10:02.470Z,0.40
2023-05-03T23:12:31.555Z,0.47
2023-05-03T23:15:00.053Z,0.30
2023-05-03T23:17:30.090Z,0.40
2023-05-03T23:19:58.667Z,0.60
2023-05-03T23:22:27.563Z,0.57
2023-05-03T23:24:56.168Z,0.50
2023-05-03T23:27:24.645Z,0.43
2023-05-03T23:29:53.672Z,0.40
2023-05-03T23:32:22.965Z,0.50
2023-05-03T23:34:53.173Z,0.60
2023-05-03T23:37:21.743Z,0.50
2023-05-03T23:39:50.282Z,0.40
2023-05-03T23:42:18.750Z,0.47
2023-05-03T23:44:54.364Z,0.60
2023-05-03T23:47:23.505Z,0.70
2023-05-03T23:49:53.875Z,0.40
2023-05-03T23:52:22.339Z,0.57
2023-05-03T23:54:51.240Z,0.37
2023-05-03T23:57:19.717Z,0.57
2023-05-03T23:59:48.164Z,0.57
